createdAt,value
2019-05-29T00:02:31.202Z,59.89
2019-05-29T00:10:52.472Z,60.06
2019-05-29T00:19:14.547Z,60.04
2019-05-29T00:27:36.425Z,59.79
2019-05-29T00:35:57.888Z,59.79
2019-05-29T00:44:33.466Z,59.69
2019-05-29T00:52:42.078Z,59.96
2019-05-29T01:01:03.594Z,59.91
2019-05-29T01:09:25.102Z,60.13
2019-05-29T01:17:46.578Z,60.24
2019-05-29T01:26:07.747Z,60.54
2019-05-29T01:34:29.750Z,60.41
2019-05-29T01:42:51.020Z,60.28
2019-05-29T01:51:12.250Z,60.04
2019-05-29T01:59:33.381Z,60.02
2019-05-29T02:07:55.906Z,60.06
2019-05-29T02:16:18.468Z,60.30
2019-05-29T02:24:39.903Z,59.98
2019-05-29T02:33:02.487Z,60.02
2019-05-29T02:41:25.447Z,59.85
2019-05-29T02:49:46.384Z,60.02
2019-05-29T02:58:07.525Z,59.46
2019-05-29T03:06:30.301Z,59.73
2019-05-29T03:14:51.546Z,60.01
2019-05-29T03:23:12.717Z,59.94
2019-05-29T03:31:41.836Z,59.51
2019-05-29T03:39:56.986Z,59.60
2019-05-29T03:48:18.532Z,60.21
2019-05-29T03:56:39.752Z,60.49
2019-05-29T04:05:01.306Z,59.81
2019-05-29T04:13:22.739Z,60.15
2019-05-29T04:21:44.071Z,60.22
2019-05-29T04:30:05.340Z,60.19
2019-05-29T04:38:28.517Z,60.36
2019-05-29T04:47:07.039Z,60.85
2019-05-29T04:55:12.979Z,60.76
2019-05-29T05:03:35.183Z,60.84
2019-05-29T05:11:56.371Z,61.37
2019-05-29T05:20:17.513Z,61.89
2019-05-29T05:28:38.777Z,62.08
2019-05-29T05:36:59.998Z,62.62
2019-05-29T05:45:21.173Z,63.01
2019-05-29T05:53:42.309Z,63.58
